createdAt,value
2023-02-02T07:31:59.514Z,95684.00
2023-02-02T07:32:59.641Z,95682.00
2023-02-02T07:33:59.269Z,95688.00
2023-02-02T07:34:59.277Z,95684.00
2023-02-02T07:35:59.150Z,95690.00
2023-02-02T07:36:59.057Z,95695.00
2023-02-02T07:37:59.009Z,95697.00
2023-02-02T07:38:58.968Z,95693.00
2023-02-02T07:39:58.913Z,95695.00
2023-02-02T07:40:58.749Z,95688.00
2023-02-02T07:41:58.642Z,95692.00
2023-02-02T07:42:58.560Z,95692.00
2023-02-02T07:45:27.599Z,95697.00
2023-02-02T07:46:03.542Z,95709.00
2023-02-02T07:47:41.710Z,95701.00
2023-02-02T07:48:41.667Z,95695.00
2023-02-02T07:50:15.977Z,95701.00
2023-02-02T07:52:07.958Z,95705.00
2023-02-02T07:53:07.871Z,95711.00
2023-02-02T07:55:14.005Z,95705.00
2023-02-02T07:56:00.974Z,95711.00
2023-02-02T07:56:59.938Z,95705.00
2023-02-02T08:00:20.040Z,95707.00
2023-02-02T08:01:20.076Z,95699.00
2023-02-02T08:02:19.948Z,95701.00
2023-02-02T08:03:19.892Z,95703.00
2023-02-02T08:05:22.698Z,95713.00
2023-02-02T08:06:22.224Z,95707.00
2023-02-02T08:07:22.281Z,95701.00
2023-02-02T08:08:22.263Z,95703.00
2023-02-02T08:09:22.219Z,95709.00
2023-02-02T08:10:22.194Z,95709.00
2023-02-02T08:11:22.185Z,95717.00
2023-02-02T08:12:24.126Z,95715.00
2023-02-02T08:13:22.392Z,95713.00
2023-02-02T08:14:22.420Z,95713.00
2023-02-02T08:15:22.523Z,95719.00
2023-02-02T08:16:22.590Z,95717.00
2023-02-02T08:17:22.637Z,95715.00
2023-02-02T08:18:22.624Z,95715.00
2023-02-02T08:19:22.660Z,95711.00
2023-02-02T08:20:22.743Z,95707.00
2023-02-02T08:21:22.745Z,95711.00
2023-02-02T08:22:22.823Z,95709.00
2023-02-02T08:23:22.847Z,95707.00
2023-02-02T08:24:23.208Z,95705.00
2023-02-02T08:25:23.355Z,95703.00
2023-02-02T08:26:23.132Z,95707.00
